createdAt,value
2019-05-22T00:00:31.684Z,19.00
2019-05-22T00:03:02.274Z,19.10
2019-05-22T00:05:34.950Z,19.10
2019-05-22T00:08:05.301Z,19.00
2019-05-22T00:10:34.854Z,18.90
2019-05-22T00:13:06.199Z,18.90
2019-05-22T00:15:38.543Z,18.90
2019-05-22T00:18:07.753Z,18.90
2019-05-22T00:20:37.375Z,18.90
2019-05-22T00:23:08.237Z,19.00
2019-05-22T00:25:38.094Z,19.00
2019-05-22T00:28:07.011Z,18.90
2019-05-22T00:30:40.283Z,18.80
2019-05-22T00:33:11.648Z,18.80
2019-05-22T00:35:42.297Z,18.80
2019-05-22T00:38:12.377Z,18.70
2019-05-22T00:40:42.913Z,18.70
2019-05-22T00:43:14.415Z,18.70
2019-05-22T00:45:45.843Z,18.70
2019-05-22T00:48:16.724Z,18.70
2019-05-22T00:50:53.884Z,18.60
2019-05-22T00:53:39.285Z,18.70
2019-05-22T00:56:14.244Z,18.70
2019-05-22T00:58:45.173Z,18.70
2019-05-22T01:01:16.018Z,18.70
2019-05-22T01:03:47.853Z,18.60
2019-05-22T01:06:18.318Z,18.50
2019-05-22T01:08:49.094Z,18.50
2019-05-22T01:11:21.294Z,18.40
2019-05-22T01:13:50.157Z,18.40
2019-05-22T01:16:19.390Z,18.40
2019-05-22T01:18:50.032Z,18.40
2019-05-22T01:21:22.402Z,18.50
2019-05-22T01:23:53.084Z,18.50
2019-05-22T01:26:22.860Z,18.50
2019-05-22T01:28:53.405Z,18.50
2019-05-22T01:31:24.277Z,18.50
2019-05-22T01:33:55.388Z,18.40
2019-05-22T01:36:27.217Z,18.40
2019-05-22T01:39:00.720Z,18.40
2019-05-22T01:41:40.757Z,18.30
2019-05-22T01:44:11.739Z,18.20
2019-05-22T01:46:43.673Z,18.20
2019-05-22T01:49:14.836Z,18.20
2019-05-22T01:51:44.803Z,18.10
2019-05-22T01:54:15.051Z,18.10
2019-05-22T01:56:46.093Z,18.10
2019-05-22T01:59:15.422Z,18.10
2019-05-22T02:01:45.295Z,18.10
2019-05-22T02:04:15.126Z,18.10
2019-05-22T02:06:45.179Z,18.10
2019-05-22T02:09:24.501Z,18.10
2019-05-22T02:12:01.015Z,18.20
2019-05-22T02:14:30.589Z,18.30
2019-05-22T02:17:00.045Z,18.30
2019-05-22T02:19:30.782Z,18.30
2019-05-22T02:21:59.734Z,18.40
2019-05-22T02:24:30.134Z,18.40
2019-05-22T02:26:59.388Z,18.40
2019-05-22T02:29:28.435Z,18.40
2019-05-22T02:31:58.365Z,18.50
2019-05-22T02:34:28.953Z,18.50
2019-05-22T02:36:57.919Z,18.60
2019-05-22T02:39:35.670Z,18.60
2019-05-22T02:42:14.672Z,18.70
2019-05-22T02:44:45.769Z,18.70
2019-05-22T02:47:19.906Z,18.80
2019-05-22T02:49:48.931Z,18.80
2019-05-22T02:52:17.734Z,18.90
2019-05-22T02:57:15.989Z,18.90
2019-05-22T02:59:45.841Z,19.00
2019-05-22T03:02:16.578Z,19.10
2019-05-22T03:05:01.778Z,19.10
2019-05-22T03:07:31.846Z,19.10
2019-05-22T03:10:02.547Z,19.10
2019-05-22T03:12:33.315Z,19.20
2019-05-22T03:15:02.688Z,19.20
2019-05-22T03:17:32.349Z,19.20
2019-05-22T03:20:04.867Z,19.30
2019-05-22T03:22:35.933Z,19.30
2019-05-22T03:25:07.982Z,19.40
2019-05-22T03:27:40.740Z,19.40
2019-05-22T03:30:12.958Z,19.30
2019-05-22T03:32:44.146Z,19.30
2019-05-22T03:35:14.177Z,19.30
2019-05-22T03:37:44.173Z,19.30
2019-05-22T03:40:14.149Z,19.30
2019-05-22T03:42:43.013Z,19.30
2019-05-22T03:45:13.838Z,19.30
2019-05-22T03:47:43.119Z,19.30
2019-05-22T03:50:14.008Z,19.30
2019-05-22T03:52:42.948Z,19.40
2019-05-22T03:55:14.018Z,19.40
2019-05-22T03:57:44.590Z,19.50
2019-05-22T04:00:19.820Z,19.60
2019-05-22T04:02:51.836Z,19.70
2019-05-22T04:05:21.077Z,19.80
2019-05-22T04:07:51.304Z,19.80
2019-05-22T04:10:21.577Z,19.80
2019-05-22T04:12:52.425Z,19.90
2019-05-22T04:15:22.763Z,19.90
2019-05-22T04:17:51.897Z,20.00
2019-05-22T04:20:22.046Z,20.10
2019-05-22T04:22:53.190Z,20.20
2019-05-22T04:25:24.452Z,20.30
2019-05-22T04:27:53.614Z,20.40
2019-05-22T04:30:23.270Z,20.20
2019-05-22T04:32:52.663Z,20.20
2019-05-22T04:35:22.610Z,20.20
2019-05-22T04:37:51.541Z,20.30
2019-05-22T04:40:27.395Z,20.40
2019-05-22T04:42:59.982Z,20.50
2019-05-22T04:45:29.243Z,20.60
2019-05-22T04:48:01.357Z,20.70
2019-05-22T04:50:30.393Z,20.70
2019-05-22T04:53:00.787Z,20.60
2019-05-22T04:55:30.867Z,20.50
2019-05-22T04:58:03.127Z,20.40
2019-05-22T05:00:32.824Z,20.20
2019-05-22T05:03:02.002Z,20.20
2019-05-22T05:05:32.436Z,20.00
2019-05-22T05:08:03.250Z,20.00
2019-05-22T05:10:33.818Z,19.90
2019-05-22T05:13:02.861Z,19.90
2019-05-22T05:15:31.774Z,19.90
2019-05-22T05:18:01.045Z,19.80
2019-05-22T05:20:29.940Z,19.70
2019-05-22T05:22:58.908Z,19.70
2019-05-22T05:25:29.541Z,19.70
2019-05-22T05:28:00.558Z,19.50
2019-05-22T05:30:31.890Z,19.30
2019-05-22T05:33:01.280Z,19.20
2019-05-22T05:35:32.195Z,19.20
2019-05-22T05:38:03.151Z,19.10
2019-05-22T05:40:41.706Z,18.90
2019-05-22T05:43:11.774Z,18.80
2019-05-22T05:45:43.098Z,18.80
2019-05-22T05:48:17.195Z,18.80
2019-05-22T05:51:08.416Z,18.80
2019-05-22T05:54:03.142Z,18.80
2019-05-22T05:56:33.935Z,18.80
2019-05-22T05:59:05.596Z,18.60
2019-05-22T06:01:36.728Z,18.40
2019-05-22T06:04:06.426Z,18.30
2019-05-22T06:06:40.714Z,18.20
2019-05-22T06:09:14.134Z,18.20
2019-05-22T06:11:52.393Z,18.20
2019-05-22T06:14:30.434Z,18.20
2019-05-22T06:17:09.559Z,18.30
2019-05-22T06:19:49.985Z,18.40
2019-05-22T06:22:19.939Z,18.50
2019-05-22T06:24:52.253Z,18.60
2019-05-22T06:27:25.789Z,18.70
2019-05-22T06:30:04.145Z,18.70
2019-05-22T06:32:52.774Z,18.80
2019-05-22T06:35:22.008Z,18.90
2019-05-22T06:38:14.068Z,19.00
2019-05-22T06:40:43.513Z,19.10
2019-05-22T06:43:21.955Z,19.20
2019-05-22T06:45:51.107Z,19.40
2019-05-22T06:48:20.611Z,19.70
2019-05-22T06:50:51.834Z,19.60
2019-05-22T06:53:20.898Z,19.80
2019-05-22T06:55:50.485Z,19.90
2019-05-22T06:58:19.834Z,19.80
2019-05-22T07:00:49.051Z,19.70
2019-05-22T07:03:17.897Z,19.70
2019-05-22T07:05:47.964Z,19.60
2019-05-22T07:08:17.166Z,19.60
2019-05-22T07:10:46.623Z,19.70
2019-05-22T07:13:17.041Z,19.60
2019-05-22T07:15:47.491Z,19.60
2019-05-22T07:18:17.998Z,19.40
2019-05-22T07:20:47.651Z,19.20
2019-05-22T07:23:20.497Z,19.10
2019-05-22T07:25:50.155Z,19.10
2019-05-22T07:28:20.378Z,18.90
2019-05-22T07:30:50.826Z,18.90
2019-05-22T07:33:22.161Z,18.90
2019-05-22T07:36:08.529Z,19.10
2019-05-22T07:38:22.487Z,19.20
2019-05-22T07:40:53.083Z,19.40
2019-05-22T07:43:22.582Z,19.60
2019-05-22T07:45:52.951Z,20.40
2019-05-22T07:48:23.678Z,20.40
2019-05-22T07:50:54.497Z,20.80
2019-05-22T07:53:30.425Z,21.10
2019-05-22T07:56:02.731Z,21.40
2019-05-22T07:58:32.060Z,21.80
2019-05-22T08:03:33.314Z,22.00
2019-05-22T08:06:02.849Z,22.10
2019-05-22T08:08:33.757Z,22.20
2019-05-22T08:11:03.196Z,22.20
2019-05-22T08:13:32.441Z,22.10
2019-05-22T08:16:01.887Z,21.90
2019-05-22T08:18:33.387Z,21.80
2019-05-22T08:21:02.967Z,21.80
2019-05-22T08:23:32.573Z,22.00
2019-05-22T08:26:01.630Z,22.10
2019-05-22T08:28:32.066Z,22.20
2019-05-22T08:31:02.408Z,22.20
2019-05-22T08:33:34.363Z,22.40
2019-05-22T08:36:04.724Z,22.50
2019-05-22T08:38:35.263Z,22.60
2019-05-22T08:41:24.960Z,22.90
2019-05-22T08:44:14.342Z,23.30
2019-05-22T08:46:26.043Z,23.60
2019-05-22T08:48:55.670Z,25.60
2019-05-22T08:51:24.870Z,25.80
2019-05-22T08:53:53.897Z,27.50
2019-05-22T08:56:23.639Z,28.70
2019-05-22T08:58:54.072Z,29.80
2019-05-22T09:04:11.009Z,30.60
2019-05-22T09:06:40.387Z,31.10
2019-05-22T09:09:09.219Z,31.30
2019-05-22T09:11:38.060Z,31.80
2019-05-22T09:14:06.917Z,31.10
2019-05-22T09:16:36.008Z,32.50
2019-05-22T09:19:05.642Z,32.20
2019-05-22T09:21:35.585Z,31.20
2019-05-22T09:24:04.868Z,31.30
2019-05-22T09:26:33.696Z,31.50
2019-05-22T09:29:02.649Z,31.30
2019-05-22T09:31:31.514Z,31.20
2019-05-22T09:34:01.518Z,32.30
2019-05-22T09:36:31.968Z,32.70
2019-05-22T09:39:00.852Z,33.00
2019-05-22T09:41:29.995Z,33.40
2019-05-22T09:43:58.927Z,33.80
2019-05-22T09:46:27.888Z,33.90
2019-05-22T09:48:57.545Z,33.90
2019-05-22T09:51:26.432Z,34.40
2019-05-22T09:53:55.523Z,33.60
2019-05-22T09:56:25.146Z,34.20
2019-05-22T09:58:54.098Z,34.60
2019-05-22T10:01:22.964Z,34.70
2019-05-22T10:03:51.795Z,34.40
2019-05-22T10:06:21.712Z,34.40
2019-05-22T10:08:50.786Z,35.40
2019-05-22T10:11:20.863Z,36.40
2019-05-22T10:13:50.069Z,34.80
2019-05-22T10:16:19.290Z,34.00
2019-05-22T10:18:52.291Z,33.80
2019-05-22T10:21:18.846Z,33.20
2019-05-22T10:23:47.821Z,32.50
2019-05-22T10:26:16.781Z,31.80
2019-05-22T10:28:45.989Z,31.10
2019-05-22T10:31:17.511Z,31.00
2019-05-22T10:33:45.589Z,32.60
2019-05-22T10:36:15.255Z,32.80
2019-05-22T10:38:44.219Z,32.20
2019-05-22T10:41:13.460Z,32.30
2019-05-22T10:43:42.898Z,33.30
2019-05-22T10:46:12.775Z,35.20
2019-05-22T10:48:41.940Z,34.70
2019-05-22T10:51:10.901Z,34.70
2019-05-22T10:53:40.231Z,34.90
2019-05-22T10:56:10.309Z,35.20
2019-05-22T10:58:39.362Z,35.70
2019-05-22T11:01:09.330Z,36.10
2019-05-22T11:03:38.227Z,37.10
2019-05-22T11:06:08.097Z,37.60
2019-05-22T11:08:37.805Z,37.30
2019-05-22T11:11:06.601Z,36.70
2019-05-22T11:13:37.792Z,37.10
2019-05-22T11:16:07.542Z,37.40
2019-05-22T11:18:36.383Z,37.90
2019-05-22T11:21:05.278Z,37.40
2019-05-22T11:23:50.513Z,37.50
2019-05-22T11:26:04.714Z,37.20
2019-05-22T11:28:33.831Z,37.80
2019-05-22T11:31:07.692Z,38.50
2019-05-22T11:33:36.532Z,38.30
2019-05-22T11:36:05.773Z,38.20
2019-05-22T11:38:35.024Z,37.50
2019-05-22T11:41:05.059Z,37.50
2019-05-22T11:43:34.336Z,37.80
2019-05-22T11:46:03.772Z,37.60
2019-05-22T11:48:32.707Z,37.40
2019-05-22T11:51:02.843Z,38.30
2019-05-22T11:53:32.754Z,38.50
2019-05-22T11:56:01.697Z,38.50
2019-05-22T11:58:31.707Z,38.00
2019-05-22T12:01:00.457Z,37.20
2019-05-22T12:03:31.651Z,37.30
2019-05-22T12:06:00.899Z,36.00
2019-05-22T12:08:30.422Z,34.40
2019-05-22T12:11:00.015Z,32.90
2019-05-22T12:13:30.384Z,32.00
2019-05-22T12:16:00.722Z,31.10
2019-05-22T12:18:29.567Z,30.40
2019-05-22T12:20:58.462Z,29.90
2019-05-22T12:23:29.575Z,29.50
2019-05-22T12:25:58.480Z,28.90
2019-05-22T12:28:27.531Z,28.60
2019-05-22T12:30:57.084Z,28.20
2019-05-22T12:33:28.261Z,27.70
2019-05-22T12:35:58.344Z,27.50
2019-05-22T12:38:28.455Z,27.30
2019-05-22T12:40:57.822Z,27.10
2019-05-22T12:43:30.697Z,27.00
2019-05-22T12:46:00.578Z,26.80
2019-05-22T12:48:29.952Z,26.80
2019-05-22T12:50:59.516Z,26.90
2019-05-22T12:53:30.371Z,26.90
2019-05-22T12:56:00.218Z,27.20
2019-05-22T12:58:29.178Z,27.50
2019-05-22T13:00:59.819Z,28.10
2019-05-22T13:03:31.915Z,30.00
2019-05-22T13:06:01.483Z,32.00
2019-05-22T13:08:31.055Z,33.60
2019-05-22T13:11:00.096Z,34.10
2019-05-22T13:13:29.225Z,34.70
2019-05-22T13:16:00.455Z,34.80
2019-05-22T13:18:30.243Z,33.60
2019-05-22T13:21:00.586Z,33.20
2019-05-22T13:23:33.914Z,33.40
2019-05-22T13:26:04.546Z,34.20
2019-05-22T13:28:35.304Z,33.80
2019-05-22T13:31:05.025Z,34.20
2019-05-22T13:33:35.961Z,33.90
2019-05-22T13:36:06.602Z,34.30
2019-05-22T13:38:35.670Z,34.70
2019-05-22T13:41:05.922Z,34.90
2019-05-22T13:43:35.979Z,35.50
2019-05-22T13:46:05.331Z,35.60
2019-05-22T13:48:35.170Z,35.70
2019-05-22T13:51:07.331Z,35.40
2019-05-22T13:53:39.469Z,34.50
2019-05-22T13:56:10.387Z,33.70
2019-05-22T13:58:39.780Z,32.50
2019-05-22T14:01:10.327Z,32.40
2019-05-22T14:03:40.293Z,31.90
2019-05-22T14:06:10.490Z,31.30
2019-05-22T14:08:42.794Z,30.70
2019-05-22T14:11:12.337Z,30.10
2019-05-22T14:13:42.476Z,29.40
2019-05-22T14:16:13.225Z,28.70
2019-05-22T14:18:48.924Z,28.20
2019-05-22T14:21:20.065Z,27.90
2019-05-22T14:23:51.722Z,28.00
2019-05-22T14:26:24.445Z,28.10
2019-05-22T14:28:55.761Z,28.10
2019-05-22T14:31:27.432Z,27.70
2019-05-22T14:34:00.798Z,27.70
2019-05-22T14:36:30.743Z,27.80
2019-05-22T14:39:00.659Z,28.00
2019-05-22T14:41:30.072Z,28.20
2019-05-22T14:44:02.851Z,28.40
2019-05-22T14:46:35.357Z,28.50
2019-05-22T14:49:05.850Z,28.40
2019-05-22T14:51:36.933Z,28.30
2019-05-22T14:54:09.407Z,28.30
2019-05-22T14:56:40.857Z,28.30
2019-05-22T14:59:11.499Z,28.10
2019-05-22T15:01:45.828Z,27.90
2019-05-22T15:04:17.449Z,27.90
2019-05-22T15:06:47.973Z,27.70
2019-05-22T15:09:19.999Z,27.60
2019-05-22T15:11:52.508Z,27.50
2019-05-22T15:14:22.989Z,27.40
2019-05-22T15:16:52.975Z,27.40
2019-05-22T15:19:24.057Z,27.20
2019-05-22T15:21:56.917Z,27.10
2019-05-22T15:24:27.851Z,26.80
2019-05-22T15:26:57.767Z,26.80
2019-05-22T15:29:28.528Z,26.80
2019-05-22T15:32:00.215Z,26.70
2019-05-22T15:34:32.441Z,26.60
2019-05-22T15:37:02.991Z,26.20
2019-05-22T15:39:32.913Z,26.20
2019-05-22T15:42:05.313Z,26.10
2019-05-22T15:44:38.492Z,25.80
2019-05-22T15:47:11.409Z,25.80
2019-05-22T15:49:43.308Z,25.60
2019-05-22T15:52:16.305Z,25.40
2019-05-22T15:54:47.578Z,25.10
2019-05-22T15:57:22.233Z,25.10
2019-05-22T15:59:55.089Z,24.90
2019-05-22T16:02:24.701Z,24.80
2019-05-22T16:04:55.882Z,25.20
2019-05-22T16:07:26.417Z,25.20
2019-05-22T16:09:56.709Z,25.50
2019-05-22T16:12:29.310Z,25.80
2019-05-22T16:15:02.274Z,25.80
2019-05-22T16:17:33.095Z,26.10
2019-05-22T16:20:04.737Z,26.20
2019-05-22T16:22:35.380Z,26.10
2019-05-22T16:25:06.039Z,26.10
2019-05-22T16:27:39.515Z,26.10
2019-05-22T16:30:14.323Z,26.20
2019-05-22T16:32:49.528Z,26.20
2019-05-22T16:35:21.076Z,26.20
2019-05-22T16:37:54.975Z,26.20
2019-05-22T16:40:28.154Z,26.30
2019-05-22T16:42:59.794Z,26.60
2019-05-22T16:45:31.309Z,26.70
2019-05-22T16:48:04.926Z,27.00
2019-05-22T16:50:35.464Z,27.20
2019-05-22T16:53:09.697Z,27.20
2019-05-22T16:58:53.790Z,26.80
2019-05-22T17:01:23.293Z,26.20
2019-05-22T17:03:55.128Z,26.00
2019-05-22T17:06:25.643Z,26.00
2019-05-22T17:08:58.018Z,26.00
2019-05-22T17:11:32.659Z,25.90
2019-05-22T17:14:06.989Z,26.00
2019-05-22T17:16:41.793Z,25.90
2019-05-22T17:19:25.610Z,25.80
2019-05-22T17:21:43.179Z,25.70
2019-05-22T17:24:18.303Z,25.70
2019-05-22T17:26:52.529Z,25.80
2019-05-22T17:29:22.341Z,25.70
2019-05-22T17:31:52.554Z,25.50
2019-05-22T17:34:33.462Z,25.20
2019-05-22T17:37:07.027Z,25.00
2019-05-22T17:39:42.677Z,24.90
2019-05-22T17:42:17.963Z,24.80
2019-05-22T17:44:49.823Z,24.40
2019-05-22T17:47:18.922Z,24.50
2019-05-22T17:49:51.026Z,24.50
2019-05-22T17:52:21.995Z,24.50
2019-05-22T17:54:53.090Z,24.50
2019-05-22T17:57:22.740Z,24.30
2019-05-22T17:59:53.633Z,24.20
2019-05-22T18:02:26.964Z,23.90
2019-05-22T18:04:57.405Z,23.90
2019-05-22T18:07:30.895Z,23.80
2019-05-22T18:10:02.658Z,23.80
2019-05-22T18:12:32.574Z,23.70
2019-05-22T18:15:03.371Z,23.60
2019-05-22T18:17:35.220Z,23.50
2019-05-22T18:20:10.539Z,23.50
2019-05-22T18:22:44.440Z,23.40
2019-05-22T18:25:16.798Z,23.30
2019-05-22T18:27:50.243Z,23.30
2019-05-22T18:30:23.099Z,23.20
2019-05-22T18:32:54.268Z,23.00
2019-05-22T18:35:23.270Z,22.90
2019-05-22T18:37:53.858Z,22.80
2019-05-22T18:40:22.783Z,22.70
2019-05-22T18:42:53.032Z,22.60
2019-05-22T18:45:28.003Z,22.50
2019-05-22T18:47:59.479Z,22.50
2019-05-22T18:50:30.191Z,22.30
2019-05-22T18:53:02.027Z,22.30
2019-05-22T18:55:34.998Z,22.10
2019-05-22T18:58:07.510Z,22.10
2019-05-22T19:00:39.393Z,22.20
2019-05-22T19:03:11.303Z,22.00
2019-05-22T19:05:41.763Z,22.00
2019-05-22T19:08:12.482Z,22.00
2019-05-22T19:10:47.222Z,21.90
2019-05-22T19:13:16.393Z,21.80
2019-05-22T19:15:47.456Z,21.70
2019-05-22T19:18:18.295Z,21.70
2019-05-22T19:20:50.641Z,21.70
2019-05-22T19:23:21.702Z,21.60
2019-05-22T19:25:53.057Z,21.50
2019-05-22T19:28:22.875Z,21.30
2019-05-22T19:30:52.845Z,21.30
2019-05-22T19:33:23.998Z,21.30
2019-05-22T19:35:55.853Z,21.20
2019-05-22T19:38:26.280Z,21.10
2019-05-22T19:40:59.228Z,21.00
2019-05-22T19:43:30.524Z,21.00
2019-05-22T19:46:02.857Z,20.90
2019-05-22T19:48:31.744Z,20.80
2019-05-22T19:51:02.311Z,20.80
2019-05-22T19:53:34.666Z,20.70
2019-05-22T19:56:05.144Z,20.70
2019-05-22T19:58:35.281Z,20.60
2019-05-22T20:01:08.062Z,20.60
2019-05-22T20:03:37.295Z,20.60
2019-05-22T20:06:11.147Z,20.60
2019-05-22T20:08:42.994Z,20.50
2019-05-22T20:11:12.943Z,20.50
2019-05-22T20:13:46.343Z,20.50
2019-05-22T20:16:18.373Z,20.50
2019-05-22T20:18:54.419Z,20.50
2019-05-22T20:21:27.125Z,20.40
2019-05-22T20:23:58.228Z,20.30
2019-05-22T20:26:28.494Z,20.30
2019-05-22T20:28:59.388Z,20.30
2019-05-22T20:31:31.394Z,20.30
2019-05-22T20:34:07.276Z,20.30
2019-05-22T20:36:36.603Z,20.30
2019-05-22T20:39:10.193Z,20.30
2019-05-22T20:41:41.737Z,20.40
2019-05-22T20:44:12.200Z,20.40
2019-05-22T20:46:43.033Z,20.30
2019-05-22T20:49:15.822Z,20.00
2019-05-22T20:51:48.678Z,20.00
2019-05-22T20:54:19.647Z,19.90
2019-05-22T20:56:54.375Z,19.80
2019-05-22T20:59:24.835Z,19.80
2019-05-22T21:01:56.754Z,19.80
2019-05-22T21:04:27.424Z,19.80
2019-05-22T21:07:01.875Z,19.70
2019-05-22T21:09:32.517Z,19.70
2019-05-22T21:12:04.479Z,19.50
2019-05-22T21:14:34.773Z,19.50
2019-05-22T21:17:06.458Z,19.40
2019-05-22T21:19:37.467Z,19.30
2019-05-22T21:22:09.369Z,19.40
2019-05-22T21:24:40.814Z,19.30
2019-05-22T21:27:11.813Z,19.30
2019-05-22T21:29:43.832Z,19.20
2019-05-22T21:32:16.259Z,19.30
2019-05-22T21:34:48.195Z,19.20
2019-05-22T21:37:20.792Z,19.10
2019-05-22T21:39:57.973Z,19.10
2019-05-22T21:42:27.280Z,18.90
2019-05-22T21:44:57.803Z,19.00
2019-05-22T21:47:27.978Z,19.00
2019-05-22T21:49:59.191Z,18.90
2019-05-22T21:52:29.648Z,18.80
2019-05-22T21:54:59.996Z,18.70
2019-05-22T21:57:30.639Z,18.70
2019-05-22T22:00:00.152Z,18.60
2019-05-22T22:02:33.640Z,18.50
2019-05-22T22:05:07.772Z,18.60
2019-05-22T22:07:37.078Z,18.50
2019-05-22T22:10:10.559Z,18.50
2019-05-22T22:12:42.224Z,18.40
2019-05-22T22:15:13.414Z,18.40
2019-05-22T22:17:48.896Z,18.30
2019-05-22T22:20:18.846Z,18.40
2019-05-22T22:22:50.019Z,18.30
2019-05-22T22:25:21.555Z,18.20
2019-05-22T22:27:52.187Z,18.20
2019-05-22T22:30:31.931Z,18.20
2019-05-22T22:33:07.049Z,18.10
2019-05-22T22:35:36.927Z,18.00
2019-05-22T22:38:07.021Z,18.00
2019-05-22T22:40:35.883Z,17.90
2019-05-22T22:43:06.260Z,17.90
2019-05-22T22:45:51.914Z,17.80
2019-05-22T22:48:26.436Z,17.80
2019-05-22T22:50:59.950Z,17.80
2019-05-22T22:53:33.036Z,17.80
2019-05-22T22:56:04.724Z,17.80
2019-05-22T22:58:37.139Z,17.70
2019-05-22T23:01:11.419Z,17.70
2019-05-22T23:03:44.278Z,17.90
2019-05-22T23:06:16.638Z,17.90
2019-05-22T23:08:50.101Z,17.90
2019-05-22T23:11:25.426Z,17.80
2019-05-22T23:13:54.617Z,17.70
2019-05-22T23:16:29.750Z,17.70
2019-05-22T23:19:12.350Z,17.80
2019-05-22T23:21:41.327Z,17.60
2019-05-22T23:24:11.309Z,17.50
2019-05-22T23:26:42.007Z,17.50
2019-05-22T23:29:11.783Z,17.40
2019-05-22T23:31:41.334Z,17.30
2019-05-22T23:34:15.371Z,17.30
2019-05-22T23:36:46.693Z,17.30
2019-05-22T23:39:19.560Z,17.20
2019-05-22T23:41:51.447Z,17.10
2019-05-22T23:44:22.730Z,17.10
2019-05-22T23:46:52.588Z,17.00
2019-05-22T23:49:21.918Z,17.00
2019-05-22T23:51:52.607Z,17.00
2019-05-22T23:54:24.516Z,16.90
2019-05-22T23:56:56.195Z,16.90
2019-05-22T23:59:26.128Z,16.80
